sensor_id;sensor_type;location;lat;lon;timestamp;P1;durP1;ratioP1;P2;durP2;ratioP2
80117;SDS011;69424;48.770;-1.564;2024-01-30T00:00:11;13.50;;;5.80;;
80117;SDS011;69424;48.770;-1.564;2024-01-30T00:01:12;14.20;;;5.80;;
80117;SDS011;69424;48.770;-1.564;2024-01-30T00:01:53;12.20;;;5.80;;
80117;SDS011;69424;48.770;-1.564;2024-01-30T00:02:26;11.80;;;6.20;;
80117;SDS011;69424;48.770;-1.564;2024-01-30T00:03:04;17.90;;;5.90;;
80117;SDS011;69424;48.770;-1.564;2024-01-30T00:03:38;12.80;;;5.80;;
80117;SDS011;69424;48.770;-1.564;2024-01-30T00:04:12;11.50;;;5.30;;
80117;SDS011;69424;48.770;-1.564;2024-01-30T00:04:54;11.20;;;5.20;;
80117;SDS011;69424;48.770;-1.564;2024-01-30T00:05:29;10.30;;;5.40;;
80117;SDS011;69424;48.770;-1.564;2024-01-30T00:06:03;12.40;;;5.60;;
80117;SDS011;69424;48.770;-1.564;2024-01-30T00:06:37;11.30;;;5.30;;
80117;SDS011;69424;48.770;-1.564;2024-01-30T00:07:16;12.20;;;5.90;;
80117;SDS011;69424;48.770;-1.564;2024-01-30T00:07:50;15.40;;;5.60;;
80117;SDS011;69424;48.770;-1.564;2024-01-30T00:08:26;11.50;;;5.20;;
80117;SDS011;69424;48.770;-1.564;2024-01-30T00:08:59;12.90;;;5.70;;
80117;SDS011;69424;48.770;-1.564;2024-01-30T00:09:33;13.70;;;5.10;;
80117;SDS011;69424;48.770;-1.564;2024-01-30T00:10:07;12.80;;;6.10;;
80117;SDS011;69424;48.770;-1.564;2024-01-30T00:10:43;12.70;;;5.40;;
80117;SDS011;69424;48.770;-1.564;2024-01-30T00:11:21;17.80;;;6.20;;
80117;SDS011;69424;48.770;-1.564;2024-01-30T00:11:55;15.70;;;5.50;;
80117;SDS011;69424;48.770;-1.564;2024-01-30T00:12:29;14.90;;;5.70;;
80117;SDS011;69424;48.770;-1.564;2024-01-30T00:13:05;12.40;;;5.60;;
80117;SDS011;69424;48.770;-1.564;2024-01-30T00:13:38;14.90;;;5.20;;
80117;SDS011;69424;48.770;-1.564;2024-01-30T00:14:13;10.60;;;5.20;;
80117;SDS011;69424;48.770;-1.564;2024-01-30T00:14:48;14.40;;;5.70;;
80117;SDS011;69424;48.770;-1.564;2024-01-30T00:15:27;12.50;;;5.70;;
80117;SDS011;69424;48.770;-1.564;2024-01-30T00:16:02;11.20;;;4.90;;
80117;SDS011;69424;48.770;-1.564;2024-01-30T00:16:37;14.40;;;5.10;;
80117;SDS011;69424;48.770;-1.564;2024-01-30T00:17:20;11.20;;;4.60;;
80117;SDS011;69424;48.770;-1.564;2024-01-30T00:17:57;13.90;;;5.10;;
80117;SDS011;69424;48.770;-1.564;2024-01-30T00:18:30;15.40;;;5.50;;
80117;SDS011;69424;48.770;-1.564;2024-01-30T00:19:04;12.60;;;5.30;;
80117;SDS011;69424;48.770;-1.564;2024-01-30T00:19:38;13.60;;;5.50;;
80117;SDS011;69424;48.770;-1.564;2024-01-30T00:20:12;12.40;;;4.90;;
80117;SDS011;69424;48.770;-1.564;2024-01-30T00:20:46;13.40;;;5.80;;
80117;SDS011;69424;48.770;-1.564;2024-01-30T00:21:22;13.40;;;5.10;;
80117;SDS011;69424;48.770;-1.564;2024-01-30T00:22:00;12.70;;;5.10;;
80117;SDS011;69424;48.770;-1.564;2024-01-30T00:22:36;13.00;;;4.90;;
80117;SDS011;69424;48.770;-1.564;2024-01-30T00:23:11;11.60;;;5.50;;
80117;SDS011;69424;48.770;-1.564;2024-01-30T00:23:51;14.50;;;5.00;;
80117;SDS011;69424;48.770;-1.564;2024-01-30T00:24:24;12.80;;;5.20;;
80117;SDS011;69424;48.770;-1.564;2024-01-30T00:24:58;14.80;;;5.60;;
80117;SDS011;69424;48.770;-1.564;2024-01-30T00:25:35;13.30;;;5.30;;
80117;SDS011;69424;48.770;-1.564;2024-01-30T00:26:09;13.50;;;5.80;;
80117;SDS011;69424;48.770;-1.564;2024-01-30T00:26:46;12.40;;;5.20;;
80117;SDS011;69424;48.770;-1.564;2024-01-30T00:27:20;13.10;;;5.60;;
80117;SDS011;69424;48.770;-1.564;2024-01-30T00:27:54;17.00;;;5.70;;
80117;SDS011;69424;48.770;-1.564;2024-01-30T00:28:30;12.60;;;4.80;;
80117;SDS011;69424;48.770;-1.564;2024-01-30T00:29:09;10.50;;;4.90;;
80117;SDS011;69424;48.770;-1.564;2024-01-30T00:29:44;14.90;;;5.40;;
80117;SDS011;69424;48.770;-1.564;2024-01-30T00:30:19;13.10;;;4.90;;
80117;SDS011;69424;48.770;-1.564;2024-01-30T00:30:53;11.80;;;5.00;;
80117;SDS011;69424;48.770;-1.564;2024-01-30T00:31:27;10.90;;;4.60;;
80117;SDS011;69424;48.770;-1.564;2024-01-30T00:32:04;13.70;;;5.20;;
80117;SDS011;69424;48.770;-1.564;2024-01-30T00:32:39;13.20;;;4.80;;
80117;SDS011;69424;48.770;-1.564;2024-01-30T00:33:13;11.80;;;5.40;;
80117;SDS011;69424;48.770;-1.564;2024-01-30T00:33:46;12.60;;;5.60;;
80117;SDS011;69424;48.770;-1.564;2024-01-30T00:34:20;13.70;;;5.70;;
80117;SDS011;69424;48.770;-1.564;2024-01-30T00:34:57;13.30;;;5.10;;
80117;SDS011;69424;48.770;-1.564;2024-01-30T00:35:30;11.20;;;5.70;;
80117;SDS011;69424;48.770;-1.564;2024-01-30T00:36:07;14.00;;;5.70;;
80117;SDS011;69424;48.770;-1.564;2024-01-30T00:36:42;13.10;;;5.50;;
80117;SDS011;69424;48.770;-1.564;2024-01-30T00:37:15;16.90;;;6.90;;
80117;SDS011;69424;48.770;-1.564;2024-01-30T00:37:49;14.70;;;5.40;;
80117;SDS011;69424;48.770;-1.564;2024-01-30T00:38:26;11.70;;;5.20;;
80117;SDS011;69424;48.770;-1.564;2024-01-30T00:38:59;12.00;;;5.00;;
80117;SDS011;69424;48.770;-1.564;2024-01-30T00:39:35;16.80;;;5.40;;
80117;SDS011;69424;48.770;-1.564;2024-01-30T00:40:10;10.70;;;4.90;;
80117;SDS011;69424;48.770;-1.564;2024-01-30T00:40:52;14.90;;;5.90;;
80117;SDS011;69424;48.770;-1.564;2024-01-30T00:41:25;13.70;;;5.40;;
80117;SDS011;69424;48.770;-1.564;2024-01-30T00:42:05;12.60;;;6.20;;
80117;SDS011;69424;48.770;-1.564;2024-01-30T00:42:42;12.50;;;5.60;;
80117;SDS011;69424;48.770;-1.564;2024-01-30T00:43:20;13.10;;;6.00;;
80117;SDS011;69424;48.770;-1.564;2024-01-30T00:43:58;13.20;;;5.10;;
80117;SDS011;69424;48.770;-1.564;2024-01-30T00:44:42;16.20;;;5.60;;
80117;SDS011;69424;48.770;-1.564;2024-01-30T00:45:15;13.00;;;5.80;;
80117;SDS011;69424;48.770;-1.564;2024-01-30T00:45:51;11.80;;;5.20;;
80117;SDS011;69424;48.770;-1.564;2024-01-30T00:46:25;12.50;;;4.90;;
80117;SDS011;69424;48.770;-1.564;2024-01-30T00:46:59;15.40;;;5.90;;
80117;SDS011;69424;48.770;-1.564;2024-01-30T00:47:35;13.50;;;5.50;;
80117;SDS011;69424;48.770;-1.564;2024-01-30T00:48:08;12.60;;;5.60;;
80117;SDS011;69424;48.770;-1.564;2024-01-30T00:48:42;12.30;;;5.20;;
80117;SDS011;69424;48.770;-1.564;2024-01-30T00:49:15;15.80;;;5.90;;
80117;SDS011;69424;48.770;-1.564;2024-01-30T00:49:52;10.60;;;5.70;;
80117;SDS011;69424;48.770;-1.564;2024-01-30T00:50:28;11.50;;;5.40;;
80117;SDS011;69424;48.770;-1.564;2024-01-30T00:51:01;13.40;;;5.40;;
80117;SDS011;69424;48.770;-1.564;2024-01-30T00:51:39;15.30;;;5.30;;
80117;SDS011;69424;48.770;-1.564;2024-01-30T00:52:15;13.80;;;4.80;;
80117;SDS011;69424;48.770;-1.564;2024-01-30T00:52:58;12.10;;;5.30;;
80117;SDS011;69424;48.770;-1.564;2024-01-30T00:53:34;15.50;;;5.00;;
80117;SDS011;69424;48.770;-1.564;2024-01-30T00:54:08;11.60;;;5.40;;
80117;SDS011;69424;48.770;-1.564;2024-01-30T00:54:41;13.80;;;5.50;;
80117;SDS011;69424;48.770;-1.564;2024-01-30T00:55:18;8.90;;;5.60;;
80117;SDS011;69424;48.770;-1.564;2024-01-30T00:55:53;13.50;;;5.70;;
80117;SDS011;69424;48.770;-1.564;2024-01-30T00:56:28;13.50;;;5.60;;
80117;SDS011;69424;48.770;-1.564;2024-01-30T00:57:11;15.60;;;5.50;;
80117;SDS011;69424;48.770;-1.564;2024-01-30T00:57:44;14.90;;;5.80;;
80117;SDS011;69424;48.770;-1.564;2024-01-30T00:58:23;11.60;;;4.90;;
80117;SDS011;69424;48.770;-1.564;2024-01-30T00:58:59;12.50;;;4.70;;
80117;SDS011;69424;48.770;-1.564;2024-01-30T00:59:36;14.80;;;5.30;;
80117;SDS011;69424;48.770;-1.564;2024-01-30T01:00:09;14.90;;;5.60;;
80117;SDS011;69424;48.770;-1.564;2024-01-30T01:00:45;13.10;;;5.00;;
80117;SDS011;69424;48.770;-1.564;2024-01-30T01:01:21;18.00;;;5.40;;
80117;SDS011;69424;48.770;-1.564;2024-01-30T01:01:56;16.30;;;5.60;;
80117;SDS011;69424;48.770;-1.564;2024-01-30T01:02:30;19.30;;;5.70;;
80117;SDS011;69424;48.770;-1.564;2024-01-30T01:03:04;17.20;;;5.50;;
80117;SDS011;69424;48.770;-1.564;2024-01-30T01:03:37;16.30;;;5.30;;
80117;SDS011;69424;48.770;-1.564;2024-01-30T01:04:14;14.60;;;5.40;;
80117;SDS011;69424;48.770;-1.564;2024-01-30T01:04:47;11.40;;;5.20;;
80117;SDS011;69424;48.770;-1.564;2024-01-30T01:05:21;14.00;;;5.20;;
80117;SDS011;69424;48.770;-1.564;2024-01-30T01:06:00;14.90;;;5.30;;
80117;SDS011;69424;48.770;-1.564;2024-01-30T01:06:34;15.30;;;5.70;;
80117;SDS011;69424;48.770;-1.564;2024-01-30T01:07:09;12.20;;;5.50;;
80117;SDS011;69424;48.770;-1.564;2024-01-30T01:07:43;13.20;;;5.60;;
80117;SDS011;69424;48.770;-1.564;2024-01-30T01:08:18;10.10;;;4.90;;
80117;SDS011;69424;48.770;-1.564;2024-01-30T01:08:54;15.40;;;5.50;;
80117;SDS011;69424;48.770;-1.564;2024-01-30T01:09:28;13.90;;;5.00;;
80117;SDS011;69424;48.770;-1.564;2024-01-30T01:10:02;11.70;;;5.60;;
80117;SDS011;69424;48.770;-1.564;2024-01-30T01:10:41;12.50;;;6.00;;
80117;SDS011;69424;48.770;-1.564;2024-01-30T01:11:16;15.30;;;5.00;;
80117;SDS011;69424;48.770;-1.564;2024-01-30T01:11:52;13.70;;;5.40;;
80117;SDS011;69424;48.770;-1.564;2024-01-30T01:12:27;15.90;;;5.40;;
80117;SDS011;69424;48.770;-1.564;2024-01-30T01:13:10;19.50;;;5.40;;
80117;SDS011;69424;48.770;-1.564;2024-01-30T01:13:46;13.30;;;4.80;;
80117;SDS011;69424;48.770;-1.564;2024-01-30T01:14:21;13.50;;;5.30;;
80117;SDS011;69424;48.770;-1.564;2024-01-30T01:14:54;16.70;;;5.60;;
80117;SDS011;69424;48.770;-1.564;2024-01-30T01:15:28;15.30;;;6.80;;
80117;SDS011;69424;48.770;-1.564;2024-01-30T01:16:05;16.10;;;5.70;;
80117;SDS011;69424;48.770;-1.564;2024-01-30T01:16:45;14.00;;;6.00;;
80117;SDS011;69424;48.770;-1.564;2024-01-30T01:17:27;16.90;;;6.80;;
80117;SDS011;69424;48.770;-1.564;2024-01-30T01:18:00;17.30;;;5.80;;
80117;SDS011;69424;48.770;-1.564;2024-01-30T01:18:37;19.70;;;6.20;;
80117;SDS011;69424;48.770;-1.564;2024-01-30T01:19:12;17.20;;;5.80;;
80117;SDS011;69424;48.770;-1.564;2024-01-30T01:19:50;16.70;;;6.70;;
80117;SDS011;69424;48.770;-1.564;2024-01-30T01:20:24;16.40;;;6.40;;
80117;SDS011;69424;48.770;-1.564;2024-01-30T01:20:58;16.00;;;5.50;;
80117;SDS011;69424;48.770;-1.564;2024-01-30T01:21:34;20.00;;;6.60;;
80117;SDS011;69424;48.770;-1.564;2024-01-30T01:22:10;15.20;;;5.80;;
80117;SDS011;69424;48.770;-1.564;2024-01-30T01:22:44;20.00;;;5.70;;
80117;SDS011;69424;48.770;-1.564;2024-01-30T01:23:21;13.20;;;5.80;;
80117;SDS011;69424;48.770;-1.564;2024-01-30T01:24:03;17.80;;;5.90;;
80117;SDS011;69424;48.770;-1.564;2024-01-30T01:24:39;15.00;;;4.40;;
80117;SDS011;69424;48.770;-1.564;2024-01-30T01:25:17;15.90;;;5.20;;
80117;SDS011;69424;48.770;-1.564;2024-01-30T01:25:53;15.80;;;6.10;;
80117;SDS011;69424;48.770;-1.564;2024-01-30T01:26:30;14.40;;;5.30;;
80117;SDS011;69424;48.770;-1.564;2024-01-30T01:27:06;12.00;;;4.90;;
80117;SDS011;69424;48.770;-1.564;2024-01-30T01:27:39;11.90;;;4.80;;
80117;SDS011;69424;48.770;-1.564;2024-01-30T01:28:14;13.40;;;5.10;;
80117;SDS011;69424;48.770;-1.564;2024-01-30T01:28:51;10.80;;;5.30;;
80117;SDS011;69424;48.770;-1.564;2024-01-30T01:29:27;16.80;;;5.50;;
80117;SDS011;69424;48.770;-1.564;2024-01-30T01:30:04;16.00;;;5.10;;
80117;SDS011;69424;48.770;-1.564;2024-01-30T01:30:41;10.70;;;4.90;;
80117;SDS011;69424;48.770;-1.564;2024-01-30T01:31:14;10.50;;;4.10;;
80117;SDS011;69424;48.770;-1.564;2024-01-30T01:31:48;8.90;;;3.30;;
80117;SDS011;69424;48.770;-1.564;2024-01-30T01:32:30;11.00;;;3.40;;
80117;SDS011;69424;48.770;-1.564;2024-01-30T01:33:18;7.50;;;2.20;;
80117;SDS011;69424;48.770;-1.564;2024-01-30T01:33:52;5.90;;;2.20;;
80117;SDS011;69424;48.770;-1.564;2024-01-30T01:34:26;8.00;;;1.50;;
80117;SDS011;69424;48.770;-1.564;2024-01-30T01:35:02;6.10;;;2.10;;
80117;SDS011;69424;48.770;-1.564;2024-01-30T01:37:32;10.00;;;1.20;;
80117;SDS011;69424;48.770;-1.564;2024-01-30T01:38:40;5.70;;;1.30;;
80117;SDS011;69424;48.770;-1.564;2024-01-30T01:39:13;5.00;;;1.20;;
80117;SDS011;69424;48.770;-1.564;2024-01-30T01:39:48;6.60;;;1.60;;
80117;SDS011;69424;48.770;-1.564;2024-01-30T01:40:26;6.50;;;1.50;;
80117;SDS011;69424;48.770;-1.564;2024-01-30T01:41:00;4.70;;;1.60;;
80117;SDS011;69424;48.770;-1.564;2024-01-30T01:41:35;6.40;;;1.30;;
80117;SDS011;69424;48.770;-1.564;2024-01-30T01:42:08;6.70;;;1.30;;
80117;SDS011;69424;48.770;-1.564;2024-01-30T01:42:42;8.80;;;1.70;;
80117;SDS011;69424;48.770;-1.564;2024-01-30T01:43:16;6.90;;;1.80;;
80117;SDS011;69424;48.770;-1.564;2024-01-30T01:43:52;6.20;;;1.50;;
80117;SDS011;69424;48.770;-1.564;2024-01-30T01:44:26;6.70;;;1.60;;
80117;SDS011;69424;48.770;-1.564;2024-01-30T01:45:00;8.50;;;1.40;;
80117;SDS011;69424;48.770;-1.564;2024-01-30T01:45:35;6.10;;;1.30;;
80117;SDS011;69424;48.770;-1.564;2024-01-30T01:46:10;8.10;;;1.90;;
80117;SDS011;69424;48.770;-1.564;2024-01-30T01:46:44;8.30;;;1.40;;
80117;SDS011;69424;48.770;-1.564;2024-01-30T01:47:21;6.70;;;1.40;;
80117;SDS011;69424;48.770;-1.564;2024-01-30T01:47:58;8.20;;;2.10;;
80117;SDS011;69424;48.770;-1.564;2024-01-30T01:49:13;5.30;;;1.10;;
80117;SDS011;69424;48.770;-1.564;2024-01-30T01:49:55;8.60;;;1.80;;
80117;SDS011;69424;48.770;-1.564;2024-01-30T01:50:29;7.30;;;1.60;;
80117;SDS011;69424;48.770;-1.564;2024-01-30T01:51:03;9.10;;;1.40;;
80117;SDS011;69424;48.770;-1.564;2024-01-30T01:51:40;8.00;;;1.40;;
80117;SDS011;69424;48.770;-1.564;2024-01-30T01:52:15;9.60;;;1.80;;
80117;SDS011;69424;48.770;-1.564;2024-01-30T01:52:55;6.20;;;1.10;;
80117;SDS011;69424;48.770;-1.564;2024-01-30T01:53:29;9.10;;;1.50;;
80117;SDS011;69424;48.770;-1.564;2024-01-30T01:54:03;9.00;;;1.60;;
80117;SDS011;69424;48.770;-1.564;2024-01-30T01:54:44;6.50;;;1.40;;
80117;SDS011;69424;48.770;-1.564;2024-01-30T01:55:18;7.40;;;2.30;;
80117;SDS011;69424;48.770;-1.564;2024-01-30T01:56:04;5.50;;;1.50;;
80117;SDS011;69424;48.770;-1.564;2024-01-30T01:56:42;5.10;;;1.70;;
80117;SDS011;69424;48.770;-1.564;2024-01-30T01:57:21;7.50;;;2.10;;
80117;SDS011;69424;48.770;-1.564;2024-01-30T01:57:54;6.10;;;2.60;;
80117;SDS011;69424;48.770;-1.564;2024-01-30T01:58:28;11.30;;;1.40;;
80117;SDS011;69424;48.770;-1.564;2024-01-30T01:59:07;7.60;;;2.10;;
80117;SDS011;69424;48.770;-1.564;2024-01-30T01:59:41;6.00;;;1.80;;
80117;SDS011;69424;48.770;-1.564;2024-01-30T02:00:17;11.20;;;1.60;;
80117;SDS011;69424;48.770;-1.564;2024-01-30T02:00:57;6.90;;;1.40;;
80117;SDS011;69424;48.770;-1.564;2024-01-30T02:01:43;9.60;;;1.40;;
80117;SDS011;69424;48.770;-1.564;2024-01-30T02:02:22;8.10;;;1.90;;
80117;SDS011;69424;48.770;-1.564;2024-01-30T02:03:03;6.30;;;1.50;;
80117;SDS011;69424;48.770;-1.564;2024-01-30T02:03:39;4.80;;;1.50;;
80117;SDS011;69424;48.770;-1.564;2024-01-30T02:04:16;7.20;;;1.80;;
80117;SDS011;69424;48.770;-1.564;2024-01-30T02:04:50;5.30;;;1.90;;
80117;SDS011;69424;48.770;-1.564;2024-01-30T02:05:24;6.60;;;1.70;;
80117;SDS011;69424;48.770;-1.564;2024-01-30T02:06:00;5.50;;;1.70;;
80117;SDS011;69424;48.770;-1.564;2024-01-30T02:06:37;6.70;;;2.10;;
80117;SDS011;69424;48.770;-1.564;2024-01-30T02:07:11;6.30;;;2.20;;
80117;SDS011;69424;48.770;-1.564;2024-01-30T02:07:51;6.40;;;1.80;;
80117;SDS011;69424;48.770;-1.564;2024-01-30T02:08:25;6.20;;;1.80;;
80117;SDS011;69424;48.770;-1.564;2024-01-30T02:08:59;7.00;;;2.10;;
80117;SDS011;69424;48.770;-1.564;2024-01-30T02:09:33;10.10;;;2.10;;
80117;SDS011;69424;48.770;-1.564;2024-01-30T02:10:09;5.70;;;1.90;;
80117;SDS011;69424;48.770;-1.564;2024-01-30T02:10:43;7.40;;;2.50;;
80117;SDS011;69424;48.770;-1.564;2024-01-30T02:11:17;3.80;;;2.10;;
80117;SDS011;69424;48.770;-1.564;2024-01-30T02:11:51;4.90;;;1.70;;
80117;SDS011;69424;48.770;-1.564;2024-01-30T02:12:25;6.10;;;2.20;;
80117;SDS011;69424;48.770;-1.564;2024-01-30T02:12:58;8.20;;;2.50;;
80117;SDS011;69424;48.770;-1.564;2024-01-30T02:13:34;6.40;;;2.20;;
80117;SDS011;69424;48.770;-1.564;2024-01-30T02:14:11;11.10;;;2.60;;
80117;SDS011;69424;48.770;-1.564;2024-01-30T02:14:46;9.80;;;2.50;;
80117;SDS011;69424;48.770;-1.564;2024-01-30T02:15:30;8.20;;;2.20;;
80117;SDS011;69424;48.770;-1.564;2024-01-30T02:16:11;6.30;;;2.10;;
80117;SDS011;69424;48.770;-1.564;2024-01-30T02:16:46;8.20;;;2.20;;
80117;SDS011;69424;48.770;-1.564;2024-01-30T02:17:22;7.50;;;2.40;;
80117;SDS011;69424;48.770;-1.564;2024-01-30T02:17:59;7.10;;;2.80;;
80117;SDS011;69424;48.770;-1.564;2024-01-30T02:18:35;5.60;;;2.10;;
80117;SDS011;69424;48.770;-1.564;2024-01-30T02:19:19;5.70;;;2.50;;
80117;SDS011;69424;48.770;-1.564;2024-01-30T02:19:53;6.80;;;2.10;;
80117;SDS011;69424;48.770;-1.564;2024-01-30T02:20:30;6.90;;;2.90;;
80117;SDS011;69424;48.770;-1.564;2024-01-30T02:21:07;6.40;;;2.30;;
80117;SDS011;69424;48.770;-1.564;2024-01-30T02:21:41;8.40;;;2.40;;
80117;SDS011;69424;48.770;-1.564;2024-01-30T02:22:16;6.30;;;2.10;;
80117;SDS011;69424;48.770;-1.564;2024-01-30T02:22:55;4.40;;;2.00;;
80117;SDS011;69424;48.770;-1.564;2024-01-30T02:23:35;5.60;;;2.20;;
80117;SDS011;69424;48.770;-1.564;2024-01-30T02:24:13;9.90;;;2.50;;
80117;SDS011;69424;48.770;-1.564;2024-01-30T02:24:46;7.00;;;2.70;;
80117;SDS011;69424;48.770;-1.564;2024-01-30T02:25:33;7.80;;;2.50;;
80117;SDS011;69424;48.770;-1.564;2024-01-30T02:26:10;6.30;;;2.30;;
80117;SDS011;69424;48.770;-1.564;2024-01-30T02:26:47;8.40;;;2.70;;
80117;SDS011;69424;48.770;-1.564;2024-01-30T02:27:23;7.00;;;2.50;;
80117;SDS011;69424;48.770;-1.564;2024-01-30T02:27:56;9.20;;;2.80;;
80117;SDS011;69424;48.770;-1.564;2024-01-30T02:28:30;6.50;;;2.80;;
80117;SDS011;69424;48.770;-1.564;2024-01-30T02:29:04;10.10;;;3.10;;
80117;SDS011;69424;48.770;-1.564;2024-01-30T02:29:37;8.00;;;2.70;;
80117;SDS011;69424;48.770;-1.564;2024-01-30T02:30:11;6.30;;;2.50;;
80117;SDS011;69424;48.770;-1.564;2024-01-30T02:30:46;11.60;;;3.30;;
80117;SDS011;69424;48.770;-1.564;2024-01-30T02:31:22;4.70;;;2.60;;
80117;SDS011;69424;48.770;-1.564;2024-01-30T02:32:02;9.20;;;2.90;;
80117;SDS011;69424;48.770;-1.564;2024-01-30T02:32:36;5.90;;;2.60;;
80117;SDS011;69424;48.770;-1.564;2024-01-30T02:33:09;7.70;;;2.60;;
80117;SDS011;69424;48.770;-1.564;2024-01-30T02:33:43;7.00;;;2.50;;
80117;SDS011;69424;48.770;-1.564;2024-01-30T02:34:18;4.80;;;2.40;;
80117;SDS011;69424;48.770;-1.564;2024-01-30T02:34:54;5.40;;;2.20;;
80117;SDS011;69424;48.770;-1.564;2024-01-30T02:35:27;7.90;;;2.70;;
80117;SDS011;69424;48.770;-1.564;2024-01-30T02:36:01;5.50;;;2.40;;
80117;SDS011;69424;48.770;-1.564;2024-01-30T02:36:35;4.70;;;2.60;;
80117;SDS011;69424;48.770;-1.564;2024-01-30T02:37:10;8.40;;;2.50;;
80117;SDS011;69424;48.770;-1.564;2024-01-30T02:37:43;5.30;;;2.30;;
80117;SDS011;69424;48.770;-1.564;2024-01-30T02:38:17;9.40;;;2.70;;
80117;SDS011;69424;48.770;-1.564;2024-01-30T02:38:52;5.90;;;2.50;;
80117;SDS011;69424;48.770;-1.564;2024-01-30T02:39:26;5.50;;;2.50;;
80117;SDS011;69424;48.770;-1.564;2024-01-30T02:39:59;6.90;;;2.20;;
80117;SDS011;69424;48.770;-1.564;2024-01-30T02:41:12;5.80;;;2.60;;
80117;SDS011;69424;48.770;-1.564;2024-01-30T02:41:48;7.50;;;2.80;;
80117;SDS011;69424;48.770;-1.564;2024-01-30T02:42:24;3.90;;;2.00;;
80117;SDS011;69424;48.770;-1.564;2024-01-30T02:43:02;5.50;;;2.50;;
80117;SDS011;69424;48.770;-1.564;2024-01-30T02:43:38;5.00;;;2.00;;
80117;SDS011;69424;48.770;-1.564;2024-01-30T02:44:14;5.70;;;2.00;;
80117;SDS011;69424;48.770;-1.564;2024-01-30T02:44:48;6.80;;;2.00;;
80117;SDS011;69424;48.770;-1.564;2024-01-30T02:45:26;6.60;;;2.80;;
80117;SDS011;69424;48.770;-1.564;2024-01-30T02:46:00;5.60;;;2.20;;
80117;SDS011;69424;48.770;-1.564;2024-01-30T02:46:34;6.70;;;2.30;;
80117;SDS011;69424;48.770;-1.564;2024-01-30T02:47:08;6.50;;;2.10;;
80117;SDS011;69424;48.770;-1.564;2024-01-30T02:47:42;9.40;;;2.40;;
80117;SDS011;69424;48.770;-1.564;2024-01-30T02:48:15;6.30;;;2.00;;
80117;SDS011;69424;48.770;-1.564;2024-01-30T02:48:49;7.40;;;2.00;;
80117;SDS011;69424;48.770;-1.564;2024-01-30T02:49:26;8.30;;;2.20;;
80117;SDS011;69424;48.770;-1.564;2024-01-30T02:50:01;7.00;;;2.00;;
80117;SDS011;69424;48.770;-1.564;2024-01-30T02:50:41;6.50;;;2.30;;
80117;SDS011;69424;48.770;-1.564;2024-01-30T02:51:18;7.20;;;2.40;;
80117;SDS011;69424;48.770;-1.564;2024-01-30T02:51:58;4.50;;;1.70;;
80117;SDS011;69424;48.770;-1.564;2024-01-30T02:52:32;7.60;;;2.40;;
80117;SDS011;69424;48.770;-1.564;2024-01-30T02:53:11;7.10;;;2.60;;
80117;SDS011;69424;48.770;-1.564;2024-01-30T02:53:47;7.30;;;2.00;;
80117;SDS011;69424;48.770;-1.564;2024-01-30T02:54:20;8.30;;;2.30;;
80117;SDS011;69424;48.770;-1.564;2024-01-30T02:54:54;5.40;;;2.20;;
80117;SDS011;69424;48.770;-1.564;2024-01-30T02:55:32;5.50;;;2.10;;
80117;SDS011;69424;48.770;-1.564;2024-01-30T02:56:08;8.90;;;2.20;;
80117;SDS011;69424;48.770;-1.564;2024-01-30T02:56:48;9.50;;;2.00;;
80117;SDS011;69424;48.770;-1.564;2024-01-30T02:57:25;4.10;;;1.70;;
80117;SDS011;69424;48.770;-1.564;2024-01-30T02:57:58;6.30;;;2.10;;
80117;SDS011;69424;48.770;-1.564;2024-01-30T02:58:32;3.90;;;1.50;;
80117;SDS011;69424;48.770;-1.564;2024-01-30T02:59:05;6.40;;;1.80;;
80117;SDS011;69424;48.770;-1.564;2024-01-30T02:59:39;3.90;;;1.60;;
80117;SDS011;69424;48.770;-1.564;2024-01-30T03:00:15;5.50;;;1.60;;
80117;SDS011;69424;48.770;-1.564;2024-01-30T03:00:52;7.50;;;1.90;;
80117;SDS011;69424;48.770;-1.564;2024-01-30T03:01:30;7.20;;;1.60;;
80117;SDS011;69424;48.770;-1.564;2024-01-30T03:02:06;6.40;;;1.90;;
80117;SDS011;69424;48.770;-1.564;2024-01-30T03:02:42;6.80;;;1.80;;
80117;SDS011;69424;48.770;-1.564;2024-01-30T03:03:16;3.50;;;1.40;;
80117;SDS011;69424;48.770;-1.564;2024-01-30T03:03:51;9.10;;;1.50;;
80117;SDS011;69424;48.770;-1.564;2024-01-30T03:04:24;8.10;;;2.10;;
80117;SDS011;69424;48.770;-1.564;2024-01-30T03:04:59;6.20;;;1.90;;
80117;SDS011;69424;48.770;-1.564;2024-01-30T03:05:33;10.80;;;1.50;;
80117;SDS011;69424;48.770;-1.564;2024-01-30T03:06:08;6.40;;;1.40;;
80117;SDS011;69424;48.770;-1.564;2024-01-30T03:06:45;6.80;;;1.40;;
80117;SDS011;69424;48.770;-1.564;2024-01-30T03:07:23;7.20;;;2.00;;
80117;SDS011;69424;48.770;-1.564;2024-01-30T03:07:59;6.90;;;1.70;;
80117;SDS011;69424;48.770;-1.564;2024-01-30T03:08:35;5.70;;;1.50;;
80117;SDS011;69424;48.770;-1.564;2024-01-30T03:09:10;5.20;;;1.30;;
80117;SDS011;69424;48.770;-1.564;2024-01-30T03:09:44;7.60;;;1.20;;
80117;SDS011;69424;48.770;-1.564;2024-01-30T03:10:17;4.70;;;1.60;;
80117;SDS011;69424;48.770;-1.564;2024-01-30T03:10:51;4.80;;;1.60;;
80117;SDS011;69424;48.770;-1.564;2024-01-30T03:11:24;4.30;;;1.40;;
80117;SDS011;69424;48.770;-1.564;2024-01-30T03:12:07;4.80;;;1.10;;
80117;SDS011;69424;48.770;-1.564;2024-01-30T03:12:44;6.70;;;1.30;;
80117;SDS011;69424;48.770;-1.564;2024-01-30T03:13:22;4.00;;;1.10;;
80117;SDS011;69424;48.770;-1.564;2024-01-30T03:14:00;5.90;;;0.90;;
80117;SDS011;69424;48.770;-1.564;2024-01-30T03:14:37;5.90;;;1.30;;
80117;SDS011;69424;48.770;-1.564;2024-01-30T03:15:11;3.70;;;1.00;;
80117;SDS011;69424;48.770;-1.564;2024-01-30T03:15:48;4.90;;;1.30;;
80117;SDS011;69424;48.770;-1.564;2024-01-30T03:16:24;5.60;;;0.90;;
80117;SDS011;69424;48.770;-1.564;2024-01-30T03:16:59;4.60;;;1.20;;
80117;SDS011;69424;48.770;-1.564;2024-01-30T03:17:33;7.10;;;1.10;;
80117;SDS011;69424;48.770;-1.564;2024-01-30T03:18:11;3.40;;;0.90;;
80117;SDS011;69424;48.770;-1.564;2024-01-30T03:18:45;3.70;;;1.30;;
80117;SDS011;69424;48.770;-1.564;2024-01-30T03:19:18;2.70;;;1.00;;
80117;SDS011;69424;48.770;-1.564;2024-01-30T03:19:57;5.90;;;1.50;;
80117;SDS011;69424;48.770;-1.564;2024-01-30T03:20:32;3.30;;;1.10;;
80117;SDS011;69424;48.770;-1.564;2024-01-30T03:21:05;7.40;;;1.20;;
80117;SDS011;69424;48.770;-1.564;2024-01-30T03:21:44;8.10;;;1.20;;
80117;SDS011;69424;48.770;-1.564;2024-01-30T03:22:20;8.30;;;1.30;;
80117;SDS011;69424;48.770;-1.564;2024-01-30T03:22:56;5.40;;;1.30;;
80117;SDS011;69424;48.770;-1.564;2024-01-30T03:23:29;5.60;;;1.60;;
80117;SDS011;69424;48.770;-1.564;2024-01-30T03:24:05;3.60;;;1.10;;
80117;SDS011;69424;48.770;-1.564;2024-01-30T03:24:41;3.60;;;1.20;;
80117;SDS011;69424;48.770;-1.564;2024-01-30T03:25:15;2.70;;;1.40;;
80117;SDS011;69424;48.770;-1.564;2024-01-30T03:25:54;2.60;;;0.90;;
80117;SDS011;69424;48.770;-1.564;2024-01-30T03:26:32;5.40;;;1.10;;
80117;SDS011;69424;48.770;-1.564;2024-01-30T03:27:08;6.40;;;0.90;;
80117;SDS011;69424;48.770;-1.564;2024-01-30T03:27:45;2.90;;;1.00;;
80117;SDS011;69424;48.770;-1.564;2024-01-30T03:28:19;3.10;;;0.90;;
80117;SDS011;69424;48.770;-1.564;2024-01-30T03:28:55;3.80;;;0.90;;
80117;SDS011;69424;48.770;-1.564;2024-01-30T03:29:28;2.20;;;0.80;;
80117;SDS011;69424;48.770;-1.564;2024-01-30T03:30:01;2.30;;;1.00;;
80117;SDS011;69424;48.770;-1.564;2024-01-30T03:30:37;2.10;;;0.70;;
80117;SDS011;69424;48.770;-1.564;2024-01-30T03:31:14;2.60;;;0.80;;
80117;SDS011;69424;48.770;-1.564;2024-01-30T03:31:53;3.50;;;1.10;;
80117;SDS011;69424;48.770;-1.564;2024-01-30T03:32:27;3.10;;;1.00;;
80117;SDS011;69424;48.770;-1.564;2024-01-30T03:33:02;3.10;;;0.90;;
80117;SDS011;69424;48.770;-1.564;2024-01-30T03:33:38;3.30;;;0.60;;
80117;SDS011;69424;48.770;-1.564;2024-01-30T03:34:12;3.50;;;1.00;;
80117;SDS011;69424;48.770;-1.564;2024-01-30T03:34:45;6.20;;;1.30;;
80117;SDS011;69424;48.770;-1.564;2024-01-30T03:35:19;10.00;;;1.00;;